sensor_id;sensor_type;location;lat;lon;timestamp;temperature;humidity
32506;DHT22;18955;51.224;8.482;2023-08-21T00:00:26;19.30;87.60
32506;DHT22;18955;51.224;8.482;2023-08-21T00:02:52;19.30;87.70
32506;DHT22;18955;51.224;8.482;2023-08-21T00:05:18;19.30;87.70
32506;DHT22;18955;51.224;8.482;2023-08-21T00:07:45;19.30;87.70
32506;DHT22;18955;51.224;8.482;2023-08-21T00:10:12;19.30;87.70
32506;DHT22;18955;51.224;8.482;2023-08-21T00:12:40;19.30;87.80
32506;DHT22;18955;51.224;8.482;2023-08-21T00:15:06;19.20;87.60
32506;DHT22;18955;51.224;8.482;2023-08-21T00:17:32;19.20;87.70
32506;DHT22;18955;51.224;8.482;2023-08-21T00:19:59;19.20;87.80
32506;DHT22;18955;51.224;8.482;2023-08-21T00:22:25;19.20;87.90
32506;DHT22;18955;51.224;8.482;2023-08-21T00:24:51;19.20;87.90
32506;DHT22;18955;51.224;8.482;2023-08-21T00:27:17;19.20;87.90
32506;DHT22;18955;51.224;8.482;2023-08-21T00:29:43;19.10;87.80
32506;DHT22;18955;51.224;8.482;2023-08-21T00:32:10;19.10;87.80
32506;DHT22;18955;51.224;8.482;2023-08-21T00:34:38;19.10;87.70
32506;DHT22;18955;51.224;8.482;2023-08-21T00:37:04;19.10;87.80
32506;DHT22;18955;51.224;8.482;2023-08-21T00:39:31;19.10;87.90
32506;DHT22;18955;51.224;8.482;2023-08-21T00:41:57;19.00;87.80
32506;DHT22;18955;51.224;8.482;2023-08-21T00:44:24;19.00;87.80
32506;DHT22;18955;51.224;8.482;2023-08-21T00:46:50;19.00;87.90
32506;DHT22;18955;51.224;8.482;2023-08-21T00:49:16;19.00;87.90
32506;DHT22;18955;51.224;8.482;2023-08-21T00:51:44;18.90;87.90
32506;DHT22;18955;51.224;8.482;2023-08-21T00:54:10;19.00;87.90
32506;DHT22;18955;51.224;8.482;2023-08-21T00:56:36;18.90;87.80
32506;DHT22;18955;51.224;8.482;2023-08-21T00:59:03;18.90;87.80
32506;DHT22;18955;51.224;8.482;2023-08-21T01:01:29;18.90;87.90
32506;DHT22;18955;51.224;8.482;2023-08-21T01:03:56;18.90;87.90
32506;DHT22;18955;51.224;8.482;2023-08-21T01:06:22;18.90;87.90
32506;DHT22;18955;51.224;8.482;2023-08-21T01:09:17;18.80;87.80
32506;DHT22;18955;51.224;8.482;2023-08-21T01:11:48;18.80;87.90
32506;DHT22;18955;51.224;8.482;2023-08-21T01:14:29;18.80;87.80
32506;DHT22;18955;51.224;8.482;2023-08-21T01:17:00;18.80;87.80
32506;DHT22;18955;51.224;8.482;2023-08-21T01:19:42;18.80;87.90
32506;DHT22;18955;51.224;8.482;2023-08-21T01:22:09;18.80;87.80
32506;DHT22;18955;51.224;8.482;2023-08-21T01:24:35;18.80;87.90
32506;DHT22;18955;51.224;8.482;2023-08-21T01:27:01;18.70;88.00
32506;DHT22;18955;51.224;8.482;2023-08-21T01:29:28;18.70;88.00
32506;DHT22;18955;51.224;8.482;2023-08-21T01:32:23;18.70;88.50
32506;DHT22;18955;51.224;8.482;2023-08-21T01:34:55;18.70;87.90
32506;DHT22;18955;51.224;8.482;2023-08-21T01:37:24;18.70;87.90
32506;DHT22;18955;51.224;8.482;2023-08-21T01:39:50;18.60;87.80
32506;DHT22;18955;51.224;8.482;2023-08-21T01:42:16;18.60;87.80
32506;DHT22;18955;51.224;8.482;2023-08-21T01:44:42;18.60;87.80
32506;DHT22;18955;51.224;8.482;2023-08-21T01:47:12;18.60;88.00
32506;DHT22;18955;51.224;8.482;2023-08-21T01:49:38;18.60;87.80
32506;DHT22;18955;51.224;8.482;2023-08-21T01:52:06;18.50;87.80
32506;DHT22;18955;51.224;8.482;2023-08-21T01:54:32;18.60;87.80
32506;DHT22;18955;51.224;8.482;2023-08-21T01:56:58;18.50;87.70
32506;DHT22;18955;51.224;8.482;2023-08-21T01:59:24;18.50;87.70
32506;DHT22;18955;51.224;8.482;2023-08-21T02:01:51;18.50;87.80
32506;DHT22;18955;51.224;8.482;2023-08-21T02:04:17;18.50;87.70
32506;DHT22;18955;51.224;8.482;2023-08-21T02:06:43;18.50;87.80
32506;DHT22;18955;51.224;8.482;2023-08-21T02:09:10;18.40;87.70
32506;DHT22;18955;51.224;8.482;2023-08-21T02:11:36;18.40;87.70
32506;DHT22;18955;51.224;8.482;2023-08-21T02:14:03;18.40;87.70
32506;DHT22;18955;51.224;8.482;2023-08-21T02:16:29;18.40;87.70
32506;DHT22;18955;51.224;8.482;2023-08-21T02:18:55;18.40;87.70
32506;DHT22;18955;51.224;8.482;2023-08-21T02:21:22;18.40;87.70
32506;DHT22;18955;51.224;8.482;2023-08-21T02:23:48;18.40;87.70
32506;DHT22;18955;51.224;8.482;2023-08-21T02:26:15;18.30;87.70
32506;DHT22;18955;51.224;8.482;2023-08-21T02:28:42;18.30;87.60
32506;DHT22;18955;51.224;8.482;2023-08-21T02:31:10;18.30;87.70
32506;DHT22;18955;51.224;8.482;2023-08-21T02:33:37;18.30;87.70
32506;DHT22;18955;51.224;8.482;2023-08-21T02:36:03;18.30;87.70
32506;DHT22;18955;51.224;8.482;2023-08-21T02:38:30;18.30;87.60
32506;DHT22;18955;51.224;8.482;2023-08-21T02:40:56;18.20;87.60
32506;DHT22;18955;51.224;8.482;2023-08-21T02:43:23;18.20;87.60
32506;DHT22;18955;51.224;8.482;2023-08-21T02:45:49;18.20;87.60
32506;DHT22;18955;51.224;8.482;2023-08-21T02:48:15;18.20;87.60
32506;DHT22;18955;51.224;8.482;2023-08-21T02:50:42;18.20;87.60
32506;DHT22;18955;51.224;8.482;2023-08-21T02:53:08;18.10;87.60
32506;DHT22;18955;51.224;8.482;2023-08-21T02:55:34;18.10;87.60
32506;DHT22;18955;51.224;8.482;2023-08-21T02:58:00;18.10;87.50
32506;DHT22;18955;51.224;8.482;2023-08-21T03:00:26;18.10;87.60
32506;DHT22;18955;51.224;8.482;2023-08-21T03:02:52;18.10;87.60
32506;DHT22;18955;51.224;8.482;2023-08-21T03:05:20;18.10;87.70
32506;DHT22;18955;51.224;8.482;2023-08-21T03:07:46;18.10;87.70
32506;DHT22;18955;51.224;8.482;2023-08-21T03:10:14;18.00;87.60
32506;DHT22;18955;51.224;8.482;2023-08-21T03:12:40;18.00;87.70
32506;DHT22;18955;51.224;8.482;2023-08-21T03:15:07;18.00;87.70
32506;DHT22;18955;51.224;8.482;2023-08-21T03:17:33;18.00;87.70
32506;DHT22;18955;51.224;8.482;2023-08-21T03:20:00;18.00;87.60
32506;DHT22;18955;51.224;8.482;2023-08-21T03:22:26;18.00;87.80
32506;DHT22;18955;51.224;8.482;2023-08-21T03:24:52;17.90;87.60
32506;DHT22;18955;51.224;8.482;2023-08-21T03:27:18;17.90;87.60
32506;DHT22;18955;51.224;8.482;2023-08-21T03:29:45;17.90;87.70
32506;DHT22;18955;51.224;8.482;2023-08-21T03:32:15;17.90;87.70
32506;DHT22;18955;51.224;8.482;2023-08-21T03:34:42;17.90;87.70
32506;DHT22;18955;51.224;8.482;2023-08-21T03:37:08;17.90;87.70
32506;DHT22;18955;51.224;8.482;2023-08-21T03:39:35;17.90;87.70
32506;DHT22;18955;51.224;8.482;2023-08-21T03:42:02;17.80;87.60
32506;DHT22;18955;51.224;8.482;2023-08-21T03:44:28;17.80;87.60
32506;DHT22;18955;51.224;8.482;2023-08-21T03:46:54;17.80;87.70
32506;DHT22;18955;51.224;8.482;2023-08-21T03:49:21;17.80;87.60
32506;DHT22;18955;51.224;8.482;2023-08-21T03:51:48;17.80;87.60
32506;DHT22;18955;51.224;8.482;2023-08-21T03:54:14;17.80;87.70
32506;DHT22;18955;51.224;8.482;2023-08-21T03:56:41;17.70;87.50
32506;DHT22;18955;51.224;8.482;2023-08-21T03:59:07;17.70;87.60
32506;DHT22;18955;51.224;8.482;2023-08-21T04:01:33;17.70;87.50
32506;DHT22;18955;51.224;8.482;2023-08-21T04:03:59;17.70;87.50
32506;DHT22;18955;51.224;8.482;2023-08-21T04:06:26;17.70;87.60
32506;DHT22;18955;51.224;8.482;2023-08-21T04:08:52;17.60;87.50
32506;DHT22;18955;51.224;8.482;2023-08-21T04:11:21;17.70;87.60
32506;DHT22;18955;51.224;8.482;2023-08-21T04:13:47;17.60;87.60
32506;DHT22;18955;51.224;8.482;2023-08-21T04:16:14;17.70;87.70
32506;DHT22;18955;51.224;8.482;2023-08-21T04:18:41;17.60;87.60
32506;DHT22;18955;51.224;8.482;2023-08-21T04:21:07;17.60;87.60
32506;DHT22;18955;51.224;8.482;2023-08-21T04:23:33;17.60;87.60
32506;DHT22;18955;51.224;8.482;2023-08-21T04:26:03;17.50;87.50
32506;DHT22;18955;51.224;8.482;2023-08-21T04:28:31;17.60;87.70
32506;DHT22;18955;51.224;8.482;2023-08-21T04:30:58;17.50;87.60
32506;DHT22;18955;51.224;8.482;2023-08-21T04:33:27;17.50;87.60
32506;DHT22;18955;51.224;8.482;2023-08-21T04:35:54;17.50;87.60
32506;DHT22;18955;51.224;8.482;2023-08-21T04:38:21;17.50;87.70
32506;DHT22;18955;51.224;8.482;2023-08-21T04:40:47;17.50;87.60
32506;DHT22;18955;51.224;8.482;2023-08-21T04:43:14;17.50;87.60
32506;DHT22;18955;51.224;8.482;2023-08-21T04:45:48;17.40;87.60
32506;DHT22;18955;51.224;8.482;2023-08-21T04:48:15;17.40;87.60
32506;DHT22;18955;51.224;8.482;2023-08-21T04:50:42;17.40;87.60
32506;DHT22;18955;51.224;8.482;2023-08-21T04:53:09;17.40;87.70
32506;DHT22;18955;51.224;8.482;2023-08-21T04:55:36;17.40;87.60
32506;DHT22;18955;51.224;8.482;2023-08-21T04:58:03;17.40;87.70
32506;DHT22;18955;51.224;8.482;2023-08-21T05:00:29;17.30;87.70
32506;DHT22;18955;51.224;8.482;2023-08-21T05:02:56;17.40;87.70
32506;DHT22;18955;51.224;8.482;2023-08-21T05:05:23;17.30;87.60
32506;DHT22;18955;51.224;8.482;2023-08-21T05:07:52;17.30;87.70
32506;DHT22;18955;51.224;8.482;2023-08-21T05:10:18;17.30;87.80
32506;DHT22;18955;51.224;8.482;2023-08-21T05:12:45;17.30;87.90
32506;DHT22;18955;51.224;8.482;2023-08-21T05:15:11;17.30;88.00
32506;DHT22;18955;51.224;8.482;2023-08-21T05:17:38;17.30;87.90
32506;DHT22;18955;51.224;8.482;2023-08-21T05:20:04;17.30;88.00
32506;DHT22;18955;51.224;8.482;2023-08-21T05:22:32;17.30;88.00
32506;DHT22;18955;51.224;8.482;2023-08-21T05:24:59;17.30;88.00
32506;DHT22;18955;51.224;8.482;2023-08-21T05:27:25;17.30;88.00
32506;DHT22;18955;51.224;8.482;2023-08-21T05:29:51;17.20;88.00
32506;DHT22;18955;51.224;8.482;2023-08-21T05:32:18;17.20;88.10
32506;DHT22;18955;51.224;8.482;2023-08-21T05:34:45;17.20;88.30
32506;DHT22;18955;51.224;8.482;2023-08-21T05:37:11;17.20;88.40
32506;DHT22;18955;51.224;8.482;2023-08-21T05:39:39;17.20;88.30
32506;DHT22;18955;51.224;8.482;2023-08-21T05:42:06;17.20;88.30
32506;DHT22;18955;51.224;8.482;2023-08-21T05:44:33;17.20;88.30
32506;DHT22;18955;51.224;8.482;2023-08-21T05:46:59;17.20;88.40
32506;DHT22;18955;51.224;8.482;2023-08-21T05:49:25;17.20;88.20
32506;DHT22;18955;51.224;8.482;2023-08-21T05:51:51;17.20;88.30
32506;DHT22;18955;51.224;8.482;2023-08-21T05:54:19;17.20;88.30
32506;DHT22;18955;51.224;8.482;2023-08-21T05:56:46;17.20;88.40
32506;DHT22;18955;51.224;8.482;2023-08-21T05:59:26;17.20;88.40
32506;DHT22;18955;51.224;8.482;2023-08-21T06:01:54;17.10;88.50
32506;DHT22;18955;51.224;8.482;2023-08-21T06:04:21;17.10;88.30
32506;DHT22;18955;51.224;8.482;2023-08-21T06:06:59;17.20;88.40
32506;DHT22;18955;51.224;8.482;2023-08-21T06:09:27;17.10;88.50
32506;DHT22;18955;51.224;8.482;2023-08-21T06:11:55;17.10;88.40
32506;DHT22;18955;51.224;8.482;2023-08-21T06:14:22;17.20;88.50
32506;DHT22;18955;51.224;8.482;2023-08-21T06:17:03;17.10;88.50
32506;DHT22;18955;51.224;8.482;2023-08-21T06:19:30;17.10;88.60
32506;DHT22;18955;51.224;8.482;2023-08-21T06:21:57;17.10;88.50
32506;DHT22;18955;51.224;8.482;2023-08-21T06:24:23;17.20;88.80
32506;DHT22;18955;51.224;8.482;2023-08-21T06:26:54;17.20;88.60
32506;DHT22;18955;51.224;8.482;2023-08-21T06:29:21;17.20;88.40
32506;DHT22;18955;51.224;8.482;2023-08-21T06:31:47;17.30;88.60
32506;DHT22;18955;51.224;8.482;2023-08-21T06:34:13;17.30;88.50
32506;DHT22;18955;51.224;8.482;2023-08-21T06:36:40;17.30;88.60
32506;DHT22;18955;51.224;8.482;2023-08-21T06:39:06;17.30;88.70
32506;DHT22;18955;51.224;8.482;2023-08-21T06:41:32;17.30;88.60
32506;DHT22;18955;51.224;8.482;2023-08-21T06:43:58;17.30;88.60
32506;DHT22;18955;51.224;8.482;2023-08-21T06:46:27;17.30;88.60
32506;DHT22;18955;51.224;8.482;2023-08-21T06:48:54;17.40;88.50
32506;DHT22;18955;51.224;8.482;2023-08-21T06:51:20;17.40;88.30
32506;DHT22;18955;51.224;8.482;2023-08-21T06:53:46;17.50;88.30
32506;DHT22;18955;51.224;8.482;2023-08-21T06:56:12;17.50;88.20
32506;DHT22;18955;51.224;8.482;2023-08-21T06:58:38;17.50;88.60
32506;DHT22;18955;51.224;8.482;2023-08-21T07:01:05;17.60;88.10
32506;DHT22;18955;51.224;8.482;2023-08-21T07:03:31;17.70;88.00
32506;DHT22;18955;51.224;8.482;2023-08-21T07:05:58;17.70;88.00
32506;DHT22;18955;51.224;8.482;2023-08-21T07:08:26;17.80;88.00
32506;DHT22;18955;51.224;8.482;2023-08-21T07:10:53;17.90;88.20
32506;DHT22;18955;51.224;8.482;2023-08-21T07:13:20;17.90;88.80
32506;DHT22;18955;51.224;8.482;2023-08-21T07:15:46;18.00;88.40
32506;DHT22;18955;51.224;8.482;2023-08-21T07:18:13;18.10;88.40
32506;DHT22;18955;51.224;8.482;2023-08-21T07:20:39;18.00;88.60
32506;DHT22;18955;51.224;8.482;2023-08-21T07:23:06;18.10;89.00
32506;DHT22;18955;51.224;8.482;2023-08-21T07:25:32;18.20;89.10
32506;DHT22;18955;51.224;8.482;2023-08-21T07:27:58;18.20;88.30
32506;DHT22;18955;51.224;8.482;2023-08-21T07:30:24;18.30;88.20
32506;DHT22;18955;51.224;8.482;2023-08-21T07:32:53;18.30;88.30
32506;DHT22;18955;51.224;8.482;2023-08-21T07:35:19;18.40;89.10
32506;DHT22;18955;51.224;8.482;2023-08-21T07:37:46;18.40;90.20
32506;DHT22;18955;51.224;8.482;2023-08-21T07:40:13;18.50;90.10
32506;DHT22;18955;51.224;8.482;2023-08-21T07:42:39;18.50;89.00
32506;DHT22;18955;51.224;8.482;2023-08-21T07:45:05;18.60;90.00
32506;DHT22;18955;51.224;8.482;2023-08-21T07:47:32;18.60;90.00
32506;DHT22;18955;51.224;8.482;2023-08-21T07:49:58;18.70;90.10
32506;DHT22;18955;51.224;8.482;2023-08-21T07:52:24;18.70;90.40
32506;DHT22;18955;51.224;8.482;2023-08-21T07:54:54;18.80;90.50
32506;DHT22;18955;51.224;8.482;2023-08-21T07:57:20;18.80;90.40
32506;DHT22;18955;51.224;8.482;2023-08-21T07:59:46;18.90;90.50
32506;DHT22;18955;51.224;8.482;2023-08-21T08:02:12;18.90;90.60
32506;DHT22;18955;51.224;8.482;2023-08-21T08:04:39;18.90;90.70
32506;DHT22;18955;51.224;8.482;2023-08-21T08:07:06;18.90;90.70
32506;DHT22;18955;51.224;8.482;2023-08-21T08:09:32;18.90;90.90
32506;DHT22;18955;51.224;8.482;2023-08-21T08:11:58;18.90;90.70
32506;DHT22;18955;51.224;8.482;2023-08-21T08:14:24;19.00;90.90
32506;DHT22;18955;51.224;8.482;2023-08-21T08:16:50;18.90;90.90
32506;DHT22;18955;51.224;8.482;2023-08-21T08:19:17;18.90;90.90
32506;DHT22;18955;51.224;8.482;2023-08-21T08:21:43;19.00;91.10
32506;DHT22;18955;51.224;8.482;2023-08-21T08:24:09;19.00;91.00
32506;DHT22;18955;51.224;8.482;2023-08-21T08:26:35;19.00;91.30
32506;DHT22;18955;51.224;8.482;2023-08-21T08:29:02;19.00;91.20
32506;DHT22;18955;51.224;8.482;2023-08-21T08:31:28;19.00;90.80
32506;DHT22;18955;51.224;8.482;2023-08-21T08:33:54;19.10;90.70
32506;DHT22;18955;51.224;8.482;2023-08-21T08:36:20;19.10;91.00
32506;DHT22;18955;51.224;8.482;2023-08-21T08:38:46;19.10;91.00
32506;DHT22;18955;51.224;8.482;2023-08-21T08:41:30;19.20;90.50
32506;DHT22;18955;51.224;8.482;2023-08-21T08:43:59;19.20;90.70
32506;DHT22;18955;51.224;8.482;2023-08-21T08:46:29;19.10;90.80
32506;DHT22;18955;51.224;8.482;2023-08-21T08:48:56;19.10;90.90
32506;DHT22;18955;51.224;8.482;2023-08-21T08:51:24;19.20;90.90
32506;DHT22;18955;51.224;8.482;2023-08-21T08:53:50;19.30;90.50
32506;DHT22;18955;51.224;8.482;2023-08-21T08:56:16;19.30;90.80
32506;DHT22;18955;51.224;8.482;2023-08-21T08:58:42;19.30;90.90
32506;DHT22;18955;51.224;8.482;2023-08-21T09:01:09;19.40;90.60
32506;DHT22;18955;51.224;8.482;2023-08-21T09:03:39;19.40;90.70
32506;DHT22;18955;51.224;8.482;2023-08-21T09:06:05;19.40;91.00
32506;DHT22;18955;51.224;8.482;2023-08-21T09:08:31;19.50;90.90
32506;DHT22;18955;51.224;8.482;2023-08-21T09:11:01;19.50;91.10
32506;DHT22;18955;51.224;8.482;2023-08-21T09:13:28;19.50;91.10
32506;DHT22;18955;51.224;8.482;2023-08-21T09:15:55;19.60;90.90
32506;DHT22;18955;51.224;8.482;2023-08-21T09:18:22;19.60;91.00
32506;DHT22;18955;51.224;8.482;2023-08-21T09:20:48;19.60;90.90
32506;DHT22;18955;51.224;8.482;2023-08-21T09:23:15;19.60;91.00
32506;DHT22;18955;51.224;8.482;2023-08-21T09:25:44;19.60;91.00
32506;DHT22;18955;51.224;8.482;2023-08-21T09:28:14;19.70;91.20
32506;DHT22;18955;51.224;8.482;2023-08-21T09:30:48;19.70;91.20
32506;DHT22;18955;51.224;8.482;2023-08-21T09:33:22;19.70;91.30
32506;DHT22;18955;51.224;8.482;2023-08-21T09:35:51;19.80;90.90
32506;DHT22;18955;51.224;8.482;2023-08-21T09:38:18;19.80;90.90
32506;DHT22;18955;51.224;8.482;2023-08-21T09:40:53;19.80;90.90
32506;DHT22;18955;51.224;8.482;2023-08-21T09:43:21;19.80;90.90
32506;DHT22;18955;51.224;8.482;2023-08-21T09:45:49;19.80;90.80
32506;DHT22;18955;51.224;8.482;2023-08-21T09:48:18;19.90;91.00
32506;DHT22;18955;51.224;8.482;2023-08-21T09:50:46;19.90;90.90
32506;DHT22;18955;51.224;8.482;2023-08-21T09:53:13;19.90;91.00
32506;DHT22;18955;51.224;8.482;2023-08-21T09:55:40;19.90;90.60
32506;DHT22;18955;51.224;8.482;2023-08-21T09:58:06;20.00;90.70
32506;DHT22;18955;51.224;8.482;2023-08-21T10:00:34;20.00;90.70
32506;DHT22;18955;51.224;8.482;2023-08-21T10:03:08;20.00;90.70
32506;DHT22;18955;51.224;8.482;2023-08-21T10:05:38;20.00;90.70
32506;DHT22;18955;51.224;8.482;2023-08-21T10:08:06;20.00;90.80
32506;DHT22;18955;51.224;8.482;2023-08-21T10:10:37;20.00;90.90
32506;DHT22;18955;51.224;8.482;2023-08-21T10:13:05;20.10;90.80
32506;DHT22;18955;51.224;8.482;2023-08-21T10:15:31;20.10;90.50
32506;DHT22;18955;51.224;8.482;2023-08-21T10:18:21;20.20;90.60
32506;DHT22;18955;51.224;8.482;2023-08-21T10:20:50;20.20;90.60
32506;DHT22;18955;51.224;8.482;2023-08-21T10:23:45;20.20;90.50
32506;DHT22;18955;51.224;8.482;2023-08-21T10:26:12;20.20;90.50
32506;DHT22;18955;51.224;8.482;2023-08-21T10:33:57;20.20;90.50
32506;DHT22;18955;51.224;8.482;2023-08-21T10:41:56;20.30;90.50
32506;DHT22;18955;51.224;8.482;2023-08-21T10:50:16;20.30;90.30
32506;DHT22;18955;51.224;8.482;2023-08-21T10:52:43;20.40;90.30
32506;DHT22;18955;51.224;8.482;2023-08-21T10:55:15;20.40;90.30
32506;DHT22;18955;51.224;8.482;2023-08-21T10:57:41;20.40;90.40
32506;DHT22;18955;51.224;8.482;2023-08-21T11:00:16;20.40;90.30
32506;DHT22;18955;51.224;8.482;2023-08-21T11:02:44;20.50;90.40
32506;DHT22;18955;51.224;8.482;2023-08-21T11:05:12;20.50;90.40
32506;DHT22;18955;51.224;8.482;2023-08-21T11:07:47;20.50;90.30
32506;DHT22;18955;51.224;8.482;2023-08-21T11:10:21;20.50;90.40
32506;DHT22;18955;51.224;8.482;2023-08-21T11:12:55;20.50;90.40
32506;DHT22;18955;51.224;8.482;2023-08-21T11:15:22;20.50;90.30
32506;DHT22;18955;51.224;8.482;2023-08-21T11:17:56;20.60;90.20
32506;DHT22;18955;51.224;8.482;2023-08-21T11:20:27;20.60;90.20
32506;DHT22;18955;51.224;8.482;2023-08-21T11:23:00;20.60;90.10
32506;DHT22;18955;51.224;8.482;2023-08-21T11:25:42;20.60;90.10
32506;DHT22;18955;51.224;8.482;2023-08-21T11:28:08;20.50;89.80
32506;DHT22;18955;51.224;8.482;2023-08-21T11:30:34;20.60;89.70
32506;DHT22;18955;51.224;8.482;2023-08-21T11:33:09;20.60;89.00
32506;DHT22;18955;51.224;8.482;2023-08-21T11:35:35;20.60;88.90
32506;DHT22;18955;51.224;8.482;2023-08-21T11:38:03;20.70;88.60
32506;DHT22;18955;51.224;8.482;2023-08-21T11:40:29;20.70;88.20
32506;DHT22;18955;51.224;8.482;2023-08-21T11:43:05;20.80;88.20
32506;DHT22;18955;51.224;8.482;2023-08-21T11:45:32;20.80;88.10
32506;DHT22;18955;51.224;8.482;2023-08-21T11:47:58;20.70;88.20
32506;DHT22;18955;51.224;8.482;2023-08-21T11:50:25;20.70;88.40
32506;DHT22;18955;51.224;8.482;2023-08-21T11:52:55;20.70;88.40
32506;DHT22;18955;51.224;8.482;2023-08-21T11:55:22;20.70;88.20
32506;DHT22;18955;51.224;8.482;2023-08-21T11:57:49;20.80;88.50
32506;DHT22;18955;51.224;8.482;2023-08-21T12:00:19;20.80;88.30
32506;DHT22;18955;51.224;8.482;2023-08-21T12:02:59;20.90;88.20
32506;DHT22;18955;51.224;8.482;2023-08-21T12:05:27;20.90;88.10
32506;DHT22;18955;51.224;8.482;2023-08-21T12:07:54;21.00;88.20
32506;DHT22;18955;51.224;8.482;2023-08-21T12:10:28;20.90;88.20
32506;DHT22;18955;51.224;8.482;2023-08-21T12:12:55;21.00;88.30
32506;DHT22;18955;51.224;8.482;2023-08-21T12:15:22;21.00;88.40
32506;DHT22;18955;51.224;8.482;2023-08-21T12:17:48;21.10;88.30
32506;DHT22;18955;51.224;8.482;2023-08-21T12:20:14;21.10;87.90
32506;DHT22;18955;51.224;8.482;2023-08-21T12:22:40;21.10;87.80
32506;DHT22;18955;51.224;8.482;2023-08-21T12:25:13;21.10;87.70
32506;DHT22;18955;51.224;8.482;2023-08-21T12:27:39;21.10;87.90
32506;DHT22;18955;51.224;8.482;2023-08-21T12:30:06;21.10;87.80
32506;DHT22;18955;51.224;8.482;2023-08-21T12:32:32;21.10;87.60
32506;DHT22;18955;51.224;8.482;2023-08-21T12:34:58;21.10;87.60
32506;DHT22;18955;51.224;8.482;2023-08-21T12:37:25;21.10;87.70
32506;DHT22;18955;51.224;8.482;2023-08-21T12:39:51;21.10;87.80
32506;DHT22;18955;51.224;8.482;2023-08-21T12:42:17;21.10;87.90
32506;DHT22;18955;51.224;8.482;2023-08-21T12:44:43;21.10;88.00
32506;DHT22;18955;51.224;8.482;2023-08-21T12:47:10;21.10;88.20
32506;DHT22;18955;51.224;8.482;2023-08-21T12:49:36;21.10;88.40
32506;DHT22;18955;51.224;8.482;2023-08-21T12:52:02;21.10;88.40
32506;DHT22;18955;51.224;8.482;2023-08-21T12:54:31;21.20;88.40
32506;DHT22;18955;51.224;8.482;2023-08-21T12:56:57;21.20;88.20
32506;DHT22;18955;51.224;8.482;2023-08-21T12:59:24;21.20;88.00
32506;DHT22;18955;51.224;8.482;2023-08-21T13:01:50;21.20;88.00
32506;DHT22;18955;51.224;8.482;2023-08-21T13:04:16;21.20;88.10
32506;DHT22;18955;51.224;8.482;2023-08-21T13:06:43;21.20;88.10
32506;DHT22;18955;51.224;8.482;2023-08-21T13:09:09;21.20;88.10
32506;DHT22;18955;51.224;8.482;2023-08-21T13:11:35;21.20;88.00
32506;DHT22;18955;51.224;8.482;2023-08-21T13:14:02;21.30;88.40
32506;DHT22;18955;51.224;8.482;2023-08-21T13:16:28;21.30;88.10
32506;DHT22;18955;51.224;8.482;2023-08-21T13:18:54;21.30;88.00
32506;DHT22;18955;51.224;8.482;2023-08-21T13:21:20;21.30;88.00
32506;DHT22;18955;51.224;8.482;2023-08-21T13:23:46;21.30;88.10
32506;DHT22;18955;51.224;8.482;2023-08-21T13:26:13;21.30;88.20
32506;DHT22;18955;51.224;8.482;2023-08-21T13:28:39;21.30;88.50
32506;DHT22;18955;51.224;8.482;2023-08-21T13:31:05;21.30;88.50
32506;DHT22;18955;51.224;8.482;2023-08-21T13:33:47;21.30;88.70
32506;DHT22;18955;51.224;8.482;2023-08-21T13:36:15;21.40;88.30
32506;DHT22;18955;51.224;8.482;2023-08-21T13:38:41;21.40;88.40
32506;DHT22;18955;51.224;8.482;2023-08-21T13:41:07;21.40;88.10
32506;DHT22;18955;51.224;8.482;2023-08-21T13:43:34;21.50;88.20
32506;DHT22;18955;51.224;8.482;2023-08-21T13:46:01;21.50;88.30
32506;DHT22;18955;51.224;8.482;2023-08-21T13:48:27;21.50;88.20
32506;DHT22;18955;51.224;8.482;2023-08-21T13:50:54;21.50;88.30
32506;DHT22;18955;51.224;8.482;2023-08-21T13:53:20;21.50;88.50
32506;DHT22;18955;51.224;8.482;2023-08-21T13:55:46;21.50;88.30
32506;DHT22;18955;51.224;8.482;2023-08-21T13:58:12;21.60;88.00
32506;DHT22;18955;51.224;8.482;2023-08-21T14:00:38;21.60;88.10
32506;DHT22;18955;51.224;8.482;2023-08-21T14:03:04;21.50;88.00
32506;DHT22;18955;51.224;8.482;2023-08-21T14:05:31;21.50;88.20
32506;DHT22;18955;51.224;8.482;2023-08-21T14:07:59;21.60;88.30
32506;DHT22;18955;51.224;8.482;2023-08-21T14:10:25;21.50;88.30
32506;DHT22;18955;51.224;8.482;2023-08-21T14:12:51;21.50;88.30
32506;DHT22;18955;51.224;8.482;2023-08-21T14:15:18;21.60;88.40
32506;DHT22;18955;51.224;8.482;2023-08-21T14:17:44;21.60;88.20
32506;DHT22;18955;51.224;8.482;2023-08-21T14:20:11;21.70;88.20
32506;DHT22;18955;51.224;8.482;2023-08-21T14:22:37;21.70;88.10
32506;DHT22;18955;51.224;8.482;2023-08-21T14:25:04;21.70;88.10
32506;DHT22;18955;51.224;8.482;2023-08-21T14:27:31;21.70;88.10
32506;DHT22;18955;51.224;8.482;2023-08-21T14:29:58;21.70;88.20
32506;DHT22;18955;51.224;8.482;2023-08-21T14:32:25;21.70;88.30
32506;DHT22;18955;51.224;8.482;2023-08-21T14:34:52;21.70;88.10
32506;DHT22;18955;51.224;8.482;2023-08-21T14:37:20;21.70;88.20
32506;DHT22;18955;51.224;8.482;2023-08-21T14:39:47;21.70;88.20
32506;DHT22;18955;51.224;8.482;2023-08-21T14:42:13;21.70;88.30
32506;DHT22;18955;51.224;8.482;2023-08-21T14:44:40;21.70;88.40
32506;DHT22;18955;51.224;8.482;2023-08-21T14:47:06;21.70;88.50
32506;DHT22;18955;51.224;8.482;2023-08-21T14:49:32;21.70;88.60
32506;DHT22;18955;51.224;8.482;2023-08-21T14:51:58;21.80;88.60
32506;DHT22;18955;51.224;8.482;2023-08-21T14:54:25;21.80;88.70
32506;DHT22;18955;51.224;8.482;2023-08-21T14:56:51;21.80;88.70
32506;DHT22;18955;51.224;8.482;2023-08-21T14:59:17;21.80;88.60
32506;DHT22;18955;51.224;8.482;2023-08-21T15:01:43;21.90;89.10
32506;DHT22;18955;51.224;8.482;2023-08-21T15:04:09;21.90;88.40
32506;DHT22;18955;51.224;8.482;2023-08-21T15:06:37;22.00;88.40
32506;DHT22;18955;51.224;8.482;2023-08-21T15:09:05;22.00;88.00
32506;DHT22;18955;51.224;8.482;2023-08-21T15:11:33;22.00;87.90
32506;DHT22;18955;51.224;8.482;2023-08-21T15:14:01;22.10;87.90
32506;DHT22;18955;51.224;8.482;2023-08-21T15:16:28;22.10;87.80
32506;DHT22;18955;51.224;8.482;2023-08-21T15:18:55;22.10;87.80
32506;DHT22;18955;51.224;8.482;2023-08-21T15:21:21;22.10;87.80
32506;DHT22;18955;51.224;8.482;2023-08-21T15:23:48;22.10;87.80
32506;DHT22;18955;51.224;8.482;2023-08-21T15:26:14;22.10;87.70
32506;DHT22;18955;51.224;8.482;2023-08-21T15:28:40;22.10;87.80
32506;DHT22;18955;51.224;8.482;2023-08-21T15:31:06;22.20;87.80
32506;DHT22;18955;51.224;8.482;2023-08-21T15:33:33;22.10;87.80
32506;DHT22;18955;51.224;8.482;2023-08-21T15:35:59;22.10;87.80
32506;DHT22;18955;51.224;8.482;2023-08-21T15:38:26;22.20;87.80
32506;DHT22;18955;51.224;8.482;2023-08-21T15:40:52;22.20;87.90
32506;DHT22;18955;51.224;8.482;2023-08-21T15:43:18;22.20;88.00
32506;DHT22;18955;51.224;8.482;2023-08-21T15:45:44;22.20;88.00
32506;DHT22;18955;51.224;8.482;2023-08-21T15:48:10;22.20;88.20